Time;durP1;ratioP1;P1;durP2;ratioP2;P2;SDS_P1;SDS_P2;PMS_P1;PMS_P2;Temp;Humidity;BMP_temperature;BMP_pressure;BME280_temperature;BME280_humidity;BME280_pressure;Samples;Min_cycle;Max_cycle;Signal;HPM_P1;HPM_P2
2023/12/30 00:01:15;;;;;;;;;2.25;2.25;;;;;-146.67;62.26;75618.06;5085218;27;61844;-78
2023/12/30 00:03:41;;;;;;;;;3.75;1.00;;;;;-146.67;62.07;75608.09;5083842;28;61913;-78
2023/12/30 00:06:07;;;;;;;;;3.75;2.00;;;;;-146.67;62.07;75606.09;5083638;28;61774;-78
2023/12/30 00:08:32;;;;;;;;;3.75;1.75;;;;;-146.67;61.94;75610.09;5084763;27;61881;-77
2023/12/30 00:10:57;;;;;;;;;1.00;1.00;;;;;-146.67;61.89;75602.09;5084794;27;61913;-77
2023/12/30 00:13:23;;;;;;;;;6.50;2.00;;;;;-146.67;61.82;75596.09;5083952;27;61715;-77
2023/12/30 00:15:48;;;;;;;;;1.25;1.25;;;;;-146.67;61.71;75590.13;5082819;28;63546;-77
2023/12/30 00:18:15;;;;;;;;;3.25;2.00;;;;;-146.67;61.38;75584.13;5084232;27;61723;-77
2023/12/30 00:20:40;;;;;;;;;2.50;1.50;;;;;-146.67;61.25;75576.13;5084398;27;61880;-77
2023/12/30 00:23:05;;;;;;;;;3.00;1.00;;;;;-146.67;61.03;75570.16;5084580;27;61809;-77
2023/12/30 00:25:31;;;;;;;;;1.00;1.00;;;;;-146.67;61.00;75584.13;5082632;28;64907;-77
2023/12/30 00:27:56;;;;;;;;;2.00;0.50;;;;;-146.67;61.27;75592.13;5083661;28;61988;-77
2023/12/30 00:30:22;;;;;;;;;3.00;2.00;;;;;-146.67;61.18;75580.13;5084591;27;61774;-77
2023/12/30 00:32:47;;;;;;;;;2.75;2.75;;;;;-146.67;61.03;75578.13;5084587;27;61898;-78
2023/12/30 00:35:13;;;;;;;;;3.00;2.75;;;;;-146.67;60.95;75580.13;5099308;27;64752;-77
2023/12/30 00:37:38;;;;;;;;;3.50;2.25;;;;;-146.67;60.84;75578.13;5084201;27;62058;-77
2023/12/30 00:40:04;;;;;;;;;6.25;2.75;;;;;-146.67;60.69;75566.16;5084221;27;61751;-77
2023/12/30 00:42:30;;;;;;;;;2.50;1.75;;;;;-146.67;60.54;75560.16;5083686;27;61766;-77
2023/12/30 00:44:55;;;;;;;;;2.75;1.50;;;;;-146.67;60.48;75558.16;5083114;27;61786;-77
2023/12/30 00:47:20;;;;;;;;;2.00;1.00;;;;;-146.67;60.64;75562.16;5083141;28;61796;-78
2023/12/30 00:49:46;;;;;;;;;1.50;1.50;;;;;-146.67;60.55;75562.16;5083895;27;62246;-77
2023/12/30 00:52:11;;;;;;;;;2.00;1.00;;;;;-146.67;60.36;75572.16;5084321;27;61737;-78
2023/12/30 00:54:37;;;;;;;;;6.00;2.00;;;;;-146.67;60.48;75568.16;5083566;28;62014;-77
2023/12/30 00:57:02;;;;;;;;;1.00;1.00;;;;;-146.67;60.33;75576.13;5083736;28;61684;-77
2023/12/30 00:59:28;;;;;;;;;3.00;3.00;;;;;-146.67;60.52;75580.13;5083868;27;61947;-77
2023/12/30 01:01:53;;;;;;;;;3.25;1.00;;;;;-146.67;60.27;75586.13;5084438;28;61798;-77
2023/12/30 01:04:18;;;;;;;;;3.25;2.00;;;;;-146.67;60.45;75590.13;5082841;27;62754;-77
2023/12/30 01:06:44;;;;;;;;;5.00;2.75;;;;;-146.67;60.31;75594.13;5082784;28;61988;-77
2023/12/30 01:09:09;;;;;;;;;4.50;2.00;;;;;-146.67;60.31;75596.09;5084419;27;61704;-77
2023/12/30 01:11:34;;;;;;;;;2.00;2.00;;;;;-146.67;60.37;75600.09;5084452;27;61815;-78
2023/12/30 01:14:00;;;;;;;;;5.00;2.75;;;;;-146.67;60.46;75610.09;5082566;27;62189;-78
2023/12/30 01:16:25;;;;;;;;;1.75;1.75;;;;;-146.67;60.32;75612.09;5083599;27;61721;-78
2023/12/30 01:18:51;;;;;;;;;1.00;1.00;;;;;-146.67;60.45;75622.06;5083033;27;62149;-78
2023/12/30 01:21:17;;;;;;;;;1.00;1.00;;;;;-146.67;60.41;75620.06;5083370;27;62579;-78
2023/12/30 01:23:43;;;;;;;;;4.00;3.00;;;;;-146.67;60.62;75628.06;5082963;27;62127;-77
2023/12/30 01:26:08;;;;;;;;;6.00;3.00;;;;;-146.67;60.56;75626.06;5081754;28;61990;-78
2023/12/30 01:28:34;;;;;;;;;3.00;2.00;;;;;-146.67;60.62;75632.06;5081894;28;61972;-78
2023/12/30 01:30:59;;;;;;;;;2.75;2.25;;;;;-146.67;60.66;75630.06;5083985;27;62057;-77
2023/12/30 01:33:24;;;;;;;;;2.00;2.00;;;;;-146.67;60.67;75630.06;5082663;28;62839;-78
2023/12/30 01:35:50;;;;;;;;;1.25;1.25;;;;;-146.67;60.74;75642.03;5083737;27;61941;-77
2023/12/30 01:38:15;;;;;;;;;2.00;1.25;;;;;-146.67;60.94;75644.03;5083144;27;61928;-77
2023/12/30 01:40:40;;;;;;;;;4.75;2.00;;;;;-146.67;60.97;75646.03;5083296;27;62124;-78
2023/12/30 01:43:06;;;;;;;;;3.25;1.00;;;;;-146.67;60.97;75644.03;5082519;27;61859;-78
2023/12/30 01:45:32;;;;;;;;;3.00;1.00;;;;;-146.67;60.99;75646.03;5081654;28;61695;-78
2023/12/30 01:47:58;;;;;;;;;1.25;1.25;;;;;-146.67;61.27;75654.03;5081788;28;61924;-78
2023/12/30 01:50:23;;;;;;;;;4.50;2.00;;;;;-146.67;61.36;75660.00;5082795;27;62164;-77
2023/12/30 01:52:50;;;;;;;;;2.00;2.00;;;;;-146.67;61.61;75672.00;5082540;27;62656;-78
2023/12/30 01:55:18;;;;;;;;;3.75;2.75;;;;;-146.67;61.69;75676.00;5081749;28;61746;-78
2023/12/30 01:57:44;;;;;;;;;2.75;1.75;;;;;-146.67;61.77;75678.00;5082656;27;61945;-78
2023/12/30 02:00:17;;;;;;;;;1.25;0.00;;;;;-146.67;61.80;75679.97;5083211;27;62158;-78
2023/12/30 02:02:43;;;;;;;;;1.75;1.75;;;;;-146.67;61.73;75679.97;5082365;27;63057;-78
2023/12/30 02:05:08;;;;;;;;;2.25;2.25;;;;;-146.67;61.67;75683.97;5082986;27;62110;-78
2023/12/30 02:07:34;;;;;;;;;1.25;1.25;;;;;-146.67;61.61;75691.97;5081606;28;62019;-78
2023/12/30 02:09:59;;;;;;;;;5.75;2.00;;;;;-146.67;61.75;75687.97;5082571;27;61839;-78
2023/12/30 02:12:25;;;;;;;;;4.00;3.50;;;;;-146.67;61.45;75695.97;5081922;27;61940;-78
2023/12/30 02:14:50;;;;;;;;;2.75;2.00;;;;;-146.67;61.80;75701.94;5082498;27;61876;-78
2023/12/30 02:17:15;;;;;;;;;5.00;2.00;;;;;-146.67;61.69;75705.94;5081534;28;61860;-78
2023/12/30 02:19:41;;;;;;;;;5.50;4.00;;;;;-146.67;61.79;75707.94;5098018;27;62000;-78
2023/12/30 02:22:06;;;;;;;;;7.00;6.00;;;;;-146.67;61.63;75711.94;5080934;28;63660;-77
2023/12/30 02:24:31;;;;;;;;;16.00;7.75;;;;;-146.67;61.67;75711.94;5082175;27;61882;-78
2023/12/30 02:26:57;;;;;;;;;13.25;4.25;;;;;-146.67;61.77;75715.94;5081314;28;61724;-77
2023/12/30 02:29:22;;;;;;;;;8.50;5.50;;;;;-146.67;61.77;75723.91;5082303;28;61927;-78
2023/12/30 02:31:47;;;;;;;;;2.00;2.00;;;;;-146.67;61.60;75723.91;5080604;28;64741;-78
2023/12/30 02:34:17;;;;;;;;;6.25;3.50;;;;;-146.67;61.59;75719.94;5082501;27;62550;-77
2023/12/30 02:36:46;;;;;;;;;5.50;5.50;;;;;-146.67;61.51;75721.91;5082581;28;61710;-77
2023/12/30 02:39:12;;;;;;;;;8.00;3.00;;;;;-146.67;61.34;75717.94;5098022;27;62135;-78
2023/12/30 02:41:38;;;;;;;;;3.25;3.25;;;;;-146.67;61.52;75717.94;5081873;27;63137;-77
2023/12/30 02:44:04;;;;;;;;;7.25;2.75;;;;;-146.67;61.36;75717.94;5082036;27;61719;-77
2023/12/30 02:46:30;;;;;;;;;5.75;4.00;;;;;-146.67;61.33;75723.91;5082487;27;61953;-77
2023/12/30 02:48:57;;;;;;;;;6.00;2.25;;;;;-146.67;61.45;75723.91;5081835;27;61710;-78
2023/12/30 02:51:23;;;;;;;;;3.25;2.75;;;;;-146.67;61.30;75731.91;5081766;28;61898;-77
2023/12/30 02:53:48;;;;;;;;;3.50;2.25;;;;;-146.67;61.22;75729.91;5081923;28;61833;-77
2023/12/30 02:56:21;;;;;;;;;5.00;3.00;;;;;-146.67;61.33;75727.91;5082437;27;62469;-78
2023/12/30 02:58:56;;;;;;;;;5.00;1.50;;;;;-146.67;61.09;75729.91;5081877;27;62082;-77
2023/12/30 03:01:27;;;;;;;;;1.75;0.75;;;;;-146.67;61.11;75725.91;5080099;28;63805;-77
2023/12/30 03:03:56;;;;;;;;;2.25;2.25;;;;;-146.67;61.39;75729.91;5081913;27;61996;-77
2023/12/30 03:06:22;;;;;;;;;1.50;1.50;;;;;-146.67;61.19;75731.91;5083125;27;61977;-78
2023/12/30 03:08:48;;;;;;;;;2.50;1.00;;;;;-146.67;61.16;75729.91;5083819;28;61958;-77
2023/12/30 03:11:15;;;;;;;;;1.50;1.50;;;;;-146.67;61.06;75723.91;5085422;27;61733;-77
2023/12/30 03:13:40;;;;;;;;;3.50;2.00;;;;;-146.67;61.18;75735.91;5084952;27;61840;-77
2023/12/30 03:16:06;;;;;;;;;4.00;2.50;;;;;-146.67;61.42;75727.91;5084388;28;62144;-77
2023/12/30 03:18:33;;;;;;;;;3.25;1.25;;;;;-146.67;61.08;75725.91;5085890;27;61752;-78
2023/12/30 03:20:58;;;;;;;;;2.50;1.50;;;;;-146.67;61.22;75741.91;5084420;28;63043;-77
2023/12/30 03:23:24;;;;;;;;;1.75;1.25;;;;;-146.67;61.04;75739.91;5085189;27;61798;-77
2023/12/30 03:25:53;;;;;;;;;0.50;0.50;;;;;-146.67;60.94;75737.91;5085549;27;61751;-77
2023/12/30 03:28:18;;;;;;;;;5.00;2.25;;;;;-146.67;61.07;75737.91;5085262;27;61908;-78
2023/12/30 03:30:45;;;;;;;;;2.00;0.25;;;;;-146.67;61.05;75737.91;5084779;27;62572;-78
2023/12/30 03:33:10;;;;;;;;;1.25;1.00;;;;;-146.67;61.10;75737.91;5085366;27;61869;-77
2023/12/30 03:35:35;;;;;;;;;2.00;0.00;;;;;-146.67;61.11;75739.91;5085596;27;61835;-77
2023/12/30 03:38:01;;;;;;;;;3.00;1.00;;;;;-146.67;61.00;75741.91;5084916;27;61869;-77
2023/12/30 03:40:26;;;;;;;;;7.00;1.00;;;;;-146.67;61.16;75749.88;5083447;28;64760;-77
2023/12/30 03:42:51;;;;;;;;;3.00;2.00;;;;;-146.67;61.26;75753.88;5084852;27;61882;-78
2023/12/30 03:45:17;;;;;;;;;2.00;1.00;;;;;-146.67;61.42;75755.88;5084052;28;62047;-77
2023/12/30 03:47:42;;;;;;;;;2.50;2.50;;;;;-146.67;61.45;75755.88;5085377;27;62087;-77
2023/12/30 03:50:08;;;;;;;;;2.00;1.50;;;;;-146.67;61.47;75759.88;5083673;28;62004;-77
2023/12/30 03:52:33;;;;;;;;;1.00;1.00;;;;;-146.67;61.44;75757.88;5084765;27;61887;-77
2023/12/30 03:54:59;;;;;;;;;7.25;1.25;;;;;-146.67;61.66;75763.88;5083426;28;61987;-77
2023/12/30 03:57:25;;;;;;;;;6.00;3.25;;;;;-146.67;61.54;75763.88;5084713;27;61875;-77
2023/12/30 03:59:51;;;;;;;;;11.75;8.00;;;;;-146.67;61.52;75761.88;5084388;27;61943;-78
2023/12/30 04:02:20;;;;;;;;;6.50;4.00;;;;;-146.67;61.65;75759.88;5084856;27;61765;-77
2023/12/30 04:04:46;;;;;;;;;11.00;8.25;;;;;-146.67;61.77;75763.88;5084717;27;61937;-77
2023/12/30 04:07:12;;;;;;;;;13.25;5.50;;;;;-146.67;61.77;75765.84;5084637;28;61750;-77
2023/12/30 04:09:37;;;;;;;;;7.50;6.50;;;;;-146.67;61.74;75755.88;5082576;28;63567;-78
2023/12/30 04:12:03;;;;;;;;;7.25;3.25;;;;;-146.67;61.64;75755.88;5083245;28;61705;-78
2023/12/30 04:14:28;;;;;;;;;4.00;4.00;;;;;-146.67;61.74;75765.84;5084056;28;61781;-78
2023/12/30 04:16:55;;;;;;;;;2.75;1.75;;;;;-146.67;61.66;75769.84;5084688;27;61703;-77
2023/12/30 04:19:20;;;;;;;;;1.75;1.75;;;;;-146.67;61.61;75765.84;5081148;28;63786;-77
2023/12/30 04:21:46;;;;;;;;;3.25;2.25;;;;;-146.67;61.65;75763.88;5084342;27;61850;-77
2023/12/30 04:24:11;;;;;;;;;5.75;3.00;;;;;-146.67;61.60;75767.84;5083086;28;61944;-78
2023/12/30 04:26:36;;;;;;;;;5.75;4.00;;;;;-146.67;61.60;75767.84;5084894;27;61818;-78
2023/12/30 04:29:02;;;;;;;;;4.25;1.00;;;;;-146.67;61.52;75757.88;5081990;28;64828;-77
2023/12/30 04:31:27;;;;;;;;;1.00;1.00;;;;;-146.67;61.40;75761.88;5084534;27;62054;-77
2023/12/30 04:33:52;;;;;;;;;8.50;2.00;;;;;-146.67;61.43;75755.88;5084435;27;61869;-77
2023/12/30 04:36:18;;;;;;;;;2.25;1.75;;;;;-146.67;61.38;75759.88;5084289;27;62048;-77
2023/12/30 04:38:43;;;;;;;;;2.75;2.00;;;;;-146.67;61.47;75761.88;5083406;27;61835;-77
2023/12/30 04:41:08;;;;;;;;;3.00;2.00;;;;;-146.67;61.56;75765.84;5100185;27;62019;-77
2023/12/30 04:43:34;;;;;;;;;2.00;2.00;;;;;-146.67;61.48;75759.88;5083994;27;61942;-77
2023/12/30 04:45:59;;;;;;;;;6.00;1.00;;;;;-146.67;61.49;75767.84;5084512;27;61939;-77
2023/12/30 04:48:25;;;;;;;;;2.75;1.50;;;;;-146.67;61.41;75767.84;5083264;27;62381;-77
2023/12/30 04:50:50;;;;;;;;;2.50;2.00;;;;;-146.67;61.59;75767.84;5083481;27;62221;-77
2023/12/30 04:53:15;;;;;;;;;3.00;0.00;;;;;-146.67;61.35;75763.88;5082783;28;61914;-78
2023/12/30 04:55:41;;;;;;;;;2.00;2.00;;;;;-146.67;61.49;75771.84;5083014;28;61827;-78
2023/12/30 04:58:06;;;;;;;;;1.50;1.00;;;;;-146.67;61.36;75771.84;5083021;27;62367;-78
2023/12/30 05:00:32;;;;;;;;;2.50;0.75;;;;;-146.67;61.38;75769.84;5083942;27;61770;-77
2023/12/30 05:02:57;;;;;;;;;3.00;3.00;;;;;-146.67;61.42;75773.84;5082655;28;62032;-78
2023/12/30 05:05:22;;;;;;;;;2.00;1.00;;;;;-146.67;61.15;75773.84;5083643;27;61854;-78
2023/12/30 05:07:48;;;;;;;;;2.50;1.00;;;;;-146.67;61.07;75771.84;5083385;27;61814;-78
2023/12/30 05:10:13;;;;;;;;;7.25;1.75;;;;;-146.67;60.88;75767.84;5082135;28;61888;-78
2023/12/30 05:12:39;;;;;;;;;1.00;1.00;;;;;-146.67;60.78;75763.88;5083491;27;61935;-78
2023/12/30 05:15:04;;;;;;;;;2.00;2.00;;;;;-146.67;60.92;75769.84;5083928;27;61908;-77
2023/12/30 05:17:32;;;;;;;;;1.00;1.00;;;;;-146.67;60.81;75767.84;5098608;27;64808;-77
2023/12/30 05:19:57;;;;;;;;;3.50;1.75;;;;;-146.67;60.78;75763.88;5083019;27;62026;-78
2023/12/30 05:22:22;;;;;;;;;3.75;1.00;;;;;-146.67;60.79;75761.88;5083586;27;61910;-77
2023/12/30 05:24:48;;;;;;;;;3.00;1.00;;;;;-146.67;60.71;75755.88;5082514;28;61777;-77
2023/12/30 05:27:13;;;;;;;;;1.50;0.50;;;;;-146.67;60.62;75761.88;5081612;28;63512;-77
2023/12/30 05:29:38;;;;;;;;;8.00;0.75;;;;;-146.67;61.14;75775.84;5082735;27;62008;-77
2023/12/30 05:32:05;;;;;;;;;1.00;1.00;;;;;-146.67;61.30;75779.84;5083729;27;61775;-78
2023/12/30 05:34:30;;;;;;;;;2.75;2.75;;;;;-146.67;61.58;75775.84;5083127;28;62221;-78
2023/12/30 05:36:56;;;;;;;;;1.00;1.00;;;;;-146.67;62.01;75775.84;5082894;27;62630;-77
2023/12/30 05:39:21;;;;;;;;;5.00;2.00;;;;;-146.67;61.73;75765.84;5083100;27;61995;-77
2023/12/30 05:41:47;;;;;;;;;1.00;1.00;;;;;-146.67;61.90;75759.88;5083765;28;61790;-78
2023/12/30 05:44:12;;;;;;;;;3.00;2.00;;;;;-146.67;62.27;75761.88;5083047;27;61751;-78
2023/12/30 05:46:37;;;;;;;;;5.50;0.75;;;;;-146.67;62.75;75767.84;5082660;27;61980;-77
2023/12/30 05:49:03;;;;;;;;;1.00;1.00;;;;;-146.67;62.83;75767.84;5080926;28;61876;-77
2023/12/30 05:51:28;;;;;;;;;2.00;2.00;;;;;-146.67;62.58;75761.88;5083186;27;61727;-77
2023/12/30 05:53:54;;;;;;;;;2.50;1.50;;;;;-146.67;62.70;75755.88;5083416;27;61670;-77
2023/12/30 05:56:23;;;;;;;;;4.75;1.25;;;;;-146.67;62.75;75763.88;5082679;27;61730;-77
2023/12/30 05:58:50;;;;;;;;;1.75;1.75;;;;;-146.67;63.00;75755.88;5082609;27;62054;-77
2023/12/30 06:01:15;;;;;;;;;3.00;1.00;;;;;-146.67;62.80;75751.88;5081491;28;62009;-77
2023/12/30 06:03:41;;;;;;;;;2.00;1.00;;;;;-146.67;62.74;75747.88;5083100;28;62000;-77
2023/12/30 06:06:06;;;;;;;;;2.25;1.00;;;;;-146.67;62.85;75743.88;5096985;27;63695;-78
2023/12/30 06:08:33;;;;;;;;;1.00;1.00;;;;;-146.67;62.82;75745.88;5083011;28;61764;-78
2023/12/30 06:10:58;;;;;;;;;1.00;1.00;;;;;-146.67;62.67;75741.91;5081796;28;61917;-78
2023/12/30 06:13:24;;;;;;;;;3.50;1.50;;;;;-146.67;62.74;75743.88;5082588;27;61822;-77
2023/12/30 06:15:50;;;;;;;;;3.00;1.25;;;;;-146.67;62.46;75741.91;5081889;27;62592;-77
2023/12/30 06:18:16;;;;;;;;;4.00;1.25;;;;;-146.67;62.42;75743.88;5082649;28;61722;-77
2023/12/30 06:20:46;;;;;;;;;2.00;2.00;;;;;-146.67;62.65;75747.88;5082256;28;61761;-77
2023/12/30 06:23:12;;;;;;;;;4.00;1.00;;;;;-146.67;62.75;75749.88;5083163;27;61900;-78
2023/12/30 06:25:37;;;;;;;;;2.00;2.00;;;;;-146.67;62.75;75753.88;5082020;28;61747;-77
2023/12/30 06:28:03;;;;;;;;;1.00;1.00;;;;;-146.67;63.05;75755.88;5082125;27;61796;-77
2023/12/30 06:30:29;;;;;;;;;2.00;1.75;;;;;-146.67;62.93;75765.84;5082653;27;62121;-77
2023/12/30 06:32:54;;;;;;;;;1.75;1.00;;;;;-146.67;63.05;75769.84;5082717;27;62148;-77
2023/12/30 06:35:19;;;;;;;;;6.00;3.00;;;;;-146.67;63.19;75775.84;5082039;27;62638;-77
2023/12/30 06:37:45;;;;;;;;;2.75;2.75;;;;;-146.67;63.16;75773.84;5080971;28;62144;-77
2023/12/30 06:40:10;;;;;;;;;5.75;2.00;;;;;-146.67;63.00;75773.84;5082546;27;61714;-77
2023/12/30 06:42:35;;;;;;;;;4.00;2.00;;;;;-146.67;62.99;75773.84;5081826;27;61780;-77
2023/12/30 06:45:01;;;;;;;;;3.75;2.00;;;;;-146.67;62.95;75765.84;5081263;27;62479;-77
2023/12/30 06:47:26;;;;;;;;;7.50;4.00;;;;;-146.67;62.89;75763.88;5082353;27;61952;-78
2023/12/30 06:49:52;;;;;;;;;4.50;1.50;;;;;-146.67;62.92;75755.88;5081775;27;61950;-77
2023/12/30 06:52:20;;;;;;;;;10.50;1.75;;;;;-146.67;62.68;75765.84;5098337;27;61796;-77
2023/12/30 06:54:45;;;;;;;;;6.00;4.00;;;;;-146.67;62.74;75763.88;5081666;27;62818;-77
2023/12/30 06:57:11;;;;;;;;;7.00;2.75;;;;;-146.67;62.72;75765.84;5082583;27;61989;-77
2023/12/30 06:59:36;;;;;;;;;8.75;3.00;;;;;-146.67;62.70;75767.84;5081559;27;62027;-78
2023/12/30 07:02:02;;;;;;;;;0.00;0.00;;;;;-146.67;62.62;75761.88;5082279;27;61806;-77
2023/12/30 07:04:27;;;;;;;;;2.00;1.00;;;;;-146.67;62.67;75763.88;5081299;27;62344;-77
2023/12/30 07:06:53;;;;;;;;;1.00;1.00;;;;;-146.67;62.85;75765.84;5082215;27;61796;-78
2023/12/30 07:09:18;;;;;;;;;6.25;2.50;;;;;-146.67;62.99;75769.84;5080977;28;61802;-77
2023/12/30 07:11:44;;;;;;;;;3.50;1.00;;;;;-146.67;62.89;75769.84;5081347;28;62059;-77
2023/12/30 07:14:09;;;;;;;;;3.00;1.75;;;;;-146.67;62.98;75767.84;5080678;27;63141;-78
2023/12/30 07:16:34;;;;;;;;;3.25;2.00;;;;;-146.67;63.20;75769.84;5082132;27;61817;-77
2023/12/30 07:19:00;;;;;;;;;7.50;1.25;;;;;-146.67;63.30;75761.88;5081238;27;61739;-77
2023/12/30 07:21:25;;;;;;;;;7.00;3.00;;;;;-146.67;63.37;75771.84;5082294;27;61893;-78
2023/12/30 07:23:50;;;;;;;;;4.00;3.00;;;;;-146.67;63.54;75765.84;5081411;27;61821;-77
2023/12/30 07:26:16;;;;;;;;;6.00;2.75;;;;;-146.67;63.45;75763.88;5082113;27;61833;-77
2023/12/30 07:28:42;;;;;;;;;3.00;1.25;;;;;-146.67;63.15;75763.88;5081227;27;61835;-77
2023/12/30 07:31:07;;;;;;;;;0.50;0.50;;;;;-146.67;63.23;75761.88;5080965;28;62116;-77
2023/12/30 07:33:34;;;;;;;;;2.75;2.00;;;;;-146.67;63.22;75767.84;5081320;27;61987;-77
2023/12/30 07:36:01;;;;;;;;;2.00;1.00;;;;;-146.67;63.30;75767.84;5081880;27;61717;-77
2023/12/30 07:38:27;;;;;;;;;1.00;1.00;;;;;-146.67;63.02;75767.84;5081893;28;61926;-77
2023/12/30 07:40:52;;;;;;;;;2.00;1.00;;;;;-146.67;63.05;75763.88;5081987;28;61778;-77
2023/12/30 07:43:17;;;;;;;;;1.00;1.00;;;;;-146.67;62.99;75777.84;5080796;27;61925;-77
2023/12/30 07:45:43;;;;;;;;;1.75;0.75;;;;;-146.67;62.98;75763.88;5080716;28;61830;-77
2023/12/30 07:48:09;;;;;;;;;1.50;1.50;;;;;-146.67;62.89;75765.84;5081764;28;62075;-77
2023/12/30 07:50:34;;;;;;;;;2.25;0.75;;;;;-146.67;62.70;75761.88;5081435;28;61699;-77
2023/12/30 07:52:59;;;;;;;;;1.25;1.25;;;;;-146.67;62.52;75759.88;5081282;27;62073;-77
2023/12/30 07:55:25;;;;;;;;;0.75;0.75;;;;;-146.67;62.21;75761.88;5085325;28;61903;-77
2023/12/30 07:57:50;;;;;;;;;2.00;0.75;;;;;-146.67;62.32;75763.88;5084433;27;61914;-77
2023/12/30 08:00:16;;;;;;;;;3.25;1.00;;;;;-146.67;62.04;75763.88;5085182;27;61753;-77
2023/12/30 08:02:41;;;;;;;;;1.00;1.00;;;;;-146.67;62.18;75777.84;5084607;28;61777;-78
2023/12/30 08:05:07;;;;;;;;;1.00;1.00;;;;;-146.67;61.87;75767.84;5084693;27;61934;-78
2023/12/30 08:07:32;;;;;;;;;2.00;2.00;;;;;-146.67;61.53;75763.88;5083683;28;61877;-77
2023/12/30 08:09:58;;;;;;;;;3.00;1.25;;;;;-146.67;61.44;75755.88;5085222;27;61922;-77
2023/12/30 08:12:23;;;;;;;;;3.50;2.50;;;;;-146.67;61.27;75749.88;5099461;27;63681;-77
2023/12/30 08:14:48;;;;;;;;;3.25;2.00;;;;;-146.67;60.97;75749.88;5084162;27;61923;-77
2023/12/30 08:17:14;;;;;;;;;2.50;1.00;;;;;-146.67;60.92;75741.91;5084993;27;61864;-77
2023/12/30 08:19:39;;;;;;;;;6.75;2.25;;;;;-146.67;60.92;75741.91;5084192;27;61953;-77
2023/12/30 08:22:05;;;;;;;;;1.50;1.00;;;;;-146.67;60.60;75729.91;5084011;27;62585;-77
2023/12/30 08:24:30;;;;;;;;;1.00;1.00;;;;;-146.67;60.49;75721.91;5084474;27;61919;-77
2023/12/30 08:26:55;;;;;;;;;1.00;1.00;;;;;-146.67;59.98;75719.94;5084348;27;61874;-78
2023/12/30 08:29:21;;;;;;;;;2.00;1.00;;;;;-146.67;59.89;75719.94;5084260;27;61795;-77
2023/12/30 08:31:46;;;;;;;;;4.00;0.00;;;;;-146.67;59.68;75715.94;5084179;28;63062;-77
2023/12/30 08:34:15;;;;;;;;;1.00;1.00;;;;;-146.67;59.54;75705.94;5084029;27;61878;-77
2023/12/30 08:36:42;;;;;;;;;1.25;0.75;;;;;-146.67;59.23;75697.97;5084673;27;61744;-77
2023/12/30 08:39:07;;;;;;;;;1.00;1.00;;;;;-146.67;59.02;75683.97;5084719;28;62165;-78
2023/12/30 08:41:33;;;;;;;;;0.25;0.25;;;;;-146.67;58.66;75666.00;5083698;27;62149;-78
2023/12/30 08:44:02;;;;;;;;;2.00;2.00;;;;;-146.67;58.48;75654.03;5082588;28;61996;-77
2023/12/30 08:46:27;;;;;;;;;1.25;1.00;;;;;-146.67;58.51;75644.03;5083020;28;61942;-77
2023/12/30 08:48:53;;;;;;;;;0.00;0.00;;;;;-146.67;58.67;75644.03;5083978;27;61776;-77
2023/12/30 08:51:18;;;;;;;;;0.75;0.00;;;;;-146.67;58.60;75636.06;5083771;27;61730;-78
2023/12/30 08:53:44;;;;;;;;;0.75;0.75;;;;;-146.67;58.78;75630.06;5084401;27;61794;-78
2023/12/30 08:56:09;;;;;;;;;3.00;0.50;;;;;-146.67;58.86;75628.06;5082621;28;61873;-78
2023/12/30 08:58:35;;;;;;;;;0.00;0.00;;;;;-146.67;58.89;75626.06;5084105;27;61783;-77
2023/12/30 09:01:00;;;;;;;;;2.25;0.25;;;;;-146.67;59.05;75614.09;5082177;28;63843;-77
2023/12/30 09:03:26;;;;;;;;;4.50;2.00;;;;;-146.67;58.95;75604.09;5083972;27;61998;-78
2023/12/30 09:05:51;;;;;;;;;1.75;0.75;;;;;-146.67;59.05;75598.09;5083342;27;61832;-77
2023/12/30 09:08:17;;;;;;;;;0.75;0.75;;;;;-146.67;59.14;75600.09;5084044;27;61948;-78
2023/12/30 09:10:42;;;;;;;;;2.00;1.00;;;;;-146.67;59.15;75596.09;5081599;28;63775;-78
2023/12/30 09:13:08;;;;;;;;;1.00;1.00;;;;;-146.67;59.31;75590.13;5082140;28;61995;-77
2023/12/30 09:15:34;;;;;;;;;1.50;1.50;;;;;-146.67;59.10;75572.16;5082406;28;62008;-78
2023/12/30 09:17:59;;;;;;;;;2.00;0.25;;;;;-146.67;59.27;75564.16;5084128;27;61975;-77
2023/12/30 09:20:24;;;;;;;;;1.75;0.25;;;;;-146.67;59.47;75564.16;5081208;28;63698;-77
2023/12/30 09:22:50;;;;;;;;;0.00;0.00;;;;;-146.67;59.42;75556.16;5083829;27;61935;-78
2023/12/30 09:25:16;;;;;;;;;1.00;0.00;;;;;-146.67;59.45;75546.19;5083582;27;61771;-78
2023/12/30 09:27:41;;;;;;;;;3.75;2.25;;;;;-146.67;59.52;75544.19;5083753;28;61884;-77
2023/12/30 09:30:08;;;;;;;;;2.25;1.25;;;;;-146.67;59.56;75538.19;5082762;27;61845;-78
2023/12/30 09:32:33;;;;;;;;;3.00;1.75;;;;;-146.67;59.49;75542.19;5082149;28;61992;-78
2023/12/30 09:35:01;;;;;;;;;4.50;1.75;;;;;-146.67;59.56;75542.19;5099331;27;61746;-77
2023/12/30 09:37:27;;;;;;;;;2.00;1.00;;;;;-146.67;59.67;75548.19;5082374;28;62398;-78
2023/12/30 09:39:53;;;;;;;;;2.00;2.00;;;;;-146.67;59.77;75546.19;5082718;28;62740;-78
2023/12/30 09:42:19;;;;;;;;;1.00;1.00;;;;;-146.67;59.70;75546.19;5083494;27;61877;-77
2023/12/30 09:44:46;;;;;;;;;1.50;1.50;;;;;-146.67;59.88;75552.19;5083012;28;61981;-78
2023/12/30 09:47:12;;;;;;;;;2.50;2.50;;;;;-146.67;59.91;75554.16;5082444;28;61825;-78
2023/12/30 09:49:40;;;;;;;;;4.25;2.00;;;;;-146.67;59.98;75546.19;5081873;28;61946;-78
2023/12/30 09:52:06;;;;;;;;;2.00;2.00;;;;;-146.67;59.98;75554.16;5083507;28;61843;-78
2023/12/30 09:54:33;;;;;;;;;3.25;2.00;;;;;-146.67;59.88;75542.19;5098755;27;62255;-78
2023/12/30 09:57:02;;;;;;;;;2.00;0.50;;;;;-146.67;60.11;75544.19;5083488;27;61896;-78
2023/12/30 09:59:30;;;;;;;;;2.00;1.50;;;;;-146.67;60.08;75534.19;5080726;28;63889;-78
2023/12/30 10:01:58;;;;;;;;;2.00;2.00;;;;;-146.67;59.79;75512.25;5081971;28;61850;-78
2023/12/30 10:04:23;;;;;;;;;2.00;1.00;;;;;-146.67;59.56;75508.25;5083030;27;61928;-78
2023/12/30 10:06:51;;;;;;;;;3.25;1.00;;;;;-146.67;59.64;75504.25;5081892;28;61673;-77
2023/12/30 10:09:18;;;;;;;;;1.00;1.00;;;;;-146.67;59.49;75474.28;5082047;28;61905;-77
2023/12/30 10:11:47;;;;;;;;;1.00;1.00;;;;;-146.67;59.46;75478.28;5081692;28;61800;-78
2023/12/30 10:14:12;;;;;;;;;2.00;1.00;;;;;-146.67;59.40;75462.31;5081005;28;61913;-78
2023/12/30 10:16:37;;;;;;;;;3.50;2.50;;;;;-146.67;59.05;75430.38;5082198;27;61717;-78
2023/12/30 10:19:08;;;;;;;;;2.00;1.00;;;;;-146.67;58.90;75414.38;5081696;27;62019;-77
2023/12/30 10:21:35;;;;;;;;;1.00;1.00;;;;;-146.67;58.52;75396.41;5082929;27;61810;-78
2023/12/30 10:24:03;;;;;;;;;3.75;3.25;;;;;-146.67;58.36;75388.44;5082552;27;61732;-77
2023/12/30 10:26:29;;;;;;;;;1.25;1.25;;;;;-146.67;57.95;75384.44;5083006;28;62328;-77
2023/12/30 10:28:55;;;;;;;;;1.00;1.00;;;;;-146.67;57.81;75354.47;5081782;28;62013;-78
2023/12/30 10:31:20;;;;;;;;;4.00;2.00;;;;;-146.67;57.59;75338.50;5082817;28;61738;-77
2023/12/30 10:33:48;;;;;;;;;9.00;5.00;;;;;-146.67;57.40;75318.53;5082671;27;61946;-77
2023/12/30 10:36:15;;;;;;;;;2.00;1.00;;;;;-146.67;56.84;75308.56;5082971;27;61864;-78
2023/12/30 10:38:41;;;;;;;;;2.25;1.25;;;;;-146.67;57.10;75290.59;5081393;27;62861;-77
2023/12/30 10:41:06;;;;;;;;;3.00;1.25;;;;;-146.67;56.95;75282.59;5082677;28;61761;-78
2023/12/30 10:43:31;;;;;;;;;4.00;2.25;;;;;-146.67;56.90;75272.59;5098049;27;61898;-78
2023/12/30 10:45:59;;;;;;;;;3.00;0.25;;;;;-146.67;56.79;75280.59;5082768;27;61993;-78
2023/12/30 10:48:44;;;;;;;;;2.25;2.00;;;;;-146.67;57.07;75274.59;5082186;28;62590;-78
2023/12/30 10:51:13;;;;;;;;;0.00;0.00;;;;;-146.67;56.64;75250.66;5081807;27;61792;-77
2023/12/30 10:53:40;;;;;;;;;4.25;2.00;;;;;-146.67;56.68;75222.69;5082368;27;61947;-78
2023/12/30 10:56:09;;;;;;;;;1.00;0.25;;;;;-146.67;56.37;75186.75;5082675;27;61836;-78
2023/12/30 10:58:35;;;;;;;;;1.00;1.00;;;;;-146.67;55.87;75172.78;5081574;27;62847;-77
2023/12/30 11:01:03;;;;;;;;;3.25;1.00;;;;;-146.67;55.87;75162.78;5098012;27;61788;-78
2023/12/30 11:03:31;;;;;;;;;2.50;1.00;;;;;-146.67;55.37;75144.81;5081031;28;61756;-77
2023/12/30 11:06:18;;;;;;;;;4.00;1.00;;;;;-146.67;55.61;75132.84;5081806;27;62488;-77
2023/12/30 11:08:44;;;;;;;;;2.00;0.50;;;;;-146.67;55.03;75120.84;5081411;27;62830;-78
2023/12/30 11:11:14;;;;;;;;;3.50;1.25;;;;;-146.67;54.81;75104.88;5082435;28;61773;-78